Time;durP1;ratioP1;P1;durP2;ratioP2;P2;SDS_P1;SDS_P2;PMS_P1;PMS_P2;Temp;Humidity;BMP_temperature;BMP_pressure;BME280_temperature;BME280_humidity;BME280_pressure;Samples;Min_cycle;Max_cycle;Signal;HPM_P1;HPM_P2
2023/03/10 00:00:20;;;;;;;13.80;11.13;;;;;;;11.69;100.00;99620.81;5072510;28;20029;-75
2023/03/10 00:02:48;;;;;;;19.10;13.63;;;;;;;11.02;100.00;99570.72;5073079;28;20113;-74
2023/03/10 00:05:15;;;;;;;17.10;13.73;;;;;;;11.63;100.00;99618.47;5073876;28;20033;-74
2023/03/10 00:07:41;;;;;;;15.48;11.43;;;;;;;11.57;100.00;99611.06;5074211;28;20461;-75
2023/03/10 00:10:07;;;;;;;17.45;11.60;;;;;;;11.53;100.00;99608.72;5074157;28;20094;-75
2023/03/10 00:12:32;;;;;;;13.18;10.13;;;;;;;11.19;100.00;99609.13;5073150;28;20526;-74
2023/03/10 00:14:57;;;;;;;12.77;9.90;;;;;;;11.39;100.00;99606.66;5073435;28;20082;-75
2023/03/10 00:17:23;;;;;;;12.82;9.93;;;;;;;11.41;100.00;99601.53;5073502;28;20471;-75
2023/03/10 00:19:48;;;;;;;13.82;10.45;;;;;;;11.20;100.00;99593.81;5073345;28;20020;-74
2023/03/10 00:22:15;;;;;;;13.80;9.30;;;;;;;11.31;100.00;99595.94;5073518;28;20131;-75
2023/03/10 00:24:40;;;;;;;14.52;9.77;;;;;;;11.13;100.00;99599.19;5072145;28;20132;-75
2023/03/10 00:27:06;;;;;;;10.57;8.88;;;;;;;11.25;100.00;99599.53;5073397;28;20143;-75
2023/03/10 00:29:31;;;;;;;13.88;8.25;;;;;;;11.32;100.00;99583.16;5072857;28;20028;-75
2023/03/10 00:31:56;;;;;;;12.20;8.02;;;;;;;11.37;100.00;99575.34;5071869;28;20037;-75
2023/03/10 00:34:22;;;;;;;12.23;7.47;;;;;;;11.53;100.00;99585.81;5073614;28;20513;-75
2023/03/10 00:36:47;;;;;;;12.05;7.30;;;;;;;11.01;100.00;99543.66;5072166;28;20066;-74
2023/03/10 00:39:12;;;;;;;11.80;8.15;;;;;;;11.45;100.00;99570.00;5073742;28;20028;-74
2023/03/10 00:41:38;;;;;;;11.73;8.18;;;;;;;11.47;100.00;99581.75;5073451;28;20055;-75
2023/03/10 00:44:05;;;;;;;19.45;11.95;;;;;;;11.11;100.00;99543.25;5073442;28;20144;-75
2023/03/10 00:46:35;;;;;;;15.82;11.07;;;;;;;11.31;100.00;99595.94;5071007;28;20042;-75
2023/03/10 00:49:00;;;;;;;13.90;9.13;;;;;;;11.17;100.00;99565.91;5073261;28;20028;-75
2023/03/10 00:51:26;;;;;;;21.08;11.38;;;;;;;11.42;100.00;99605.72;5073344;28;20032;-74
2023/03/10 00:53:51;;;;;;;19.30;11.30;;;;;;;11.16;100.00;99555.81;5072956;28;20047;-75
2023/03/10 00:56:20;;;;;;;18.00;11.00;;;;;;;11.21;100.00;99604.81;5073029;28;20033;-74
2023/03/10 00:58:48;;;;;;;14.45;10.70;;;;;;;11.06;100.00;99565.50;5072625;28;20142;-75
2023/03/10 01:01:36;;;;;;;16.65;10.82;;;;;;;11.33;100.00;99604.34;5071564;28;20035;-74
2023/03/10 01:04:04;;;;;;;17.67;9.82;;;;;;;11.19;100.00;99599.75;5072057;28;20045;-75
2023/03/10 01:06:31;;;;;;;17.70;10.63;;;;;;;11.03;100.00;99602.94;5071082;28;20025;-74
2023/03/10 01:08:56;;;;;;;19.42;12.82;;;;;;;11.18;100.00;99597.28;5072515;28;20036;-75
2023/03/10 01:11:24;;;;;;;22.38;13.70;;;;;;;11.16;100.00;99591.41;5072765;28;20025;-75
2023/03/10 01:13:51;;;;;;;30.27;19.02;;;;;;;10.86;100.00;99531.47;5072608;28;20052;-75
2023/03/10 01:16:16;;;;;;;22.88;14.10;;;;;;;10.82;100.00;99563.00;5072808;28;20074;-75
2023/03/10 01:18:42;;;;;;;13.10;9.15;;;;;;;10.71;100.00;99547.31;5071679;28;20060;-76
2023/03/10 01:21:19;;;;;;;16.90;10.43;;;;;;;11.00;100.00;99605.56;5071089;28;20127;-74
2023/03/10 01:23:45;;;;;;;14.60;10.27;;;;;;;10.07;100.00;99508.84;5072459;28;20052;-75
2023/03/10 01:26:11;;;;;;;14.23;9.40;;;;;;;10.88;100.00;99616.19;5072094;28;20037;-74
2023/03/10 01:28:37;;;;;;;15.98;9.85;;;;;;;10.85;100.00;99603.59;5072419;28;20043;-75
2023/03/10 01:31:06;;;;;;;14.02;8.30;;;;;;;10.66;100.00;99555.09;5071857;28;20058;-75
2023/03/10 01:33:38;;;;;;;14.70;8.02;;;;;;;10.31;100.00;99518.19;5071911;28;20064;-74
2023/03/10 01:36:07;;;;;;;;;;;;;;;10.66;100.00;99611.00;5068811;28;20411;-75
2023/03/10 01:38:33;;;;;;;14.38;9.00;;;;;;;10.59;100.00;99601.94;5071934;28;19913;-74
2023/03/10 01:40:58;;;;;;;12.98;9.10;;;;;;;9.99;100.00;99607.28;5072026;28;20030;-75
2023/03/10 01:43:34;;;;;;;10.27;8.40;;;;;;;9.96;100.00;99602.31;5061765;28;20037;-75
2023/03/10 01:46:20;;;;;;;12.05;8.70;;;;;;;10.10;100.00;99602.72;5051638;28;20049;-75
2023/03/10 01:48:45;;;;;;;11.85;8.73;;;;;;;9.58;100.00;99572.22;5052085;28;20037;-75
2023/03/10 01:51:10;;;;;;;11.32;8.45;;;;;;;9.80;100.00;99555.44;5051298;28;20029;-74
2023/03/10 01:53:36;;;;;;;13.43;9.07;;;;;;;9.93;100.00;99558.41;5047902;28;20408;-76
2023/03/10 01:56:03;;;;;;;12.30;9.02;;;;;;;10.43;100.00;99609.25;5031675;28;20448;-76
2023/03/10 01:58:36;;;;;;;13.35;9.32;;;;;;;9.90;100.00;99551.72;5030673;28;20032;-75
2023/03/10 02:01:01;;;;;;;13.07;9.20;;;;;;;10.03;100.00;99601.22;5030732;28;20105;-75
2023/03/10 02:03:36;;;;;;;13.02;9.05;;;;;;;10.22;100.00;99564.22;5030806;28;20120;-74
2023/03/10 02:06:09;;;;;;;14.43;9.20;;;;;;;10.37;100.00;99609.47;5031820;28;20036;-75
2023/03/10 02:08:42;;;;;;;17.95;9.57;;;;;;;10.47;100.00;99604.91;5031711;28;20470;-75
2023/03/10 02:11:08;;;;;;;14.48;9.15;;;;;;;10.08;100.00;99601.09;5030201;28;20125;-75
2023/03/10 02:13:33;;;;;;;14.50;8.30;;;;;;;10.28;100.00;99606.41;5031476;28;20121;-75
2023/03/10 02:15:59;;;;;;;14.98;8.32;;;;;;;10.14;100.00;99550.13;5030160;28;20404;-75
2023/03/10 02:18:25;;;;;;;16.95;9.68;;;;;;;10.24;100.00;99597.22;5031863;28;20033;-75
2023/03/10 02:21:04;;;;;;;11.82;8.68;;;;;;;10.38;100.00;99607.72;5031952;28;20029;-75
2023/03/10 02:23:44;;;;;;;12.43;8.30;;;;;;;10.26;100.00;99605.63;5030367;28;20123;-75
2023/03/10 02:26:20;;;;;;;15.80;8.65;;;;;;;10.18;100.00;99587.25;5030624;28;20046;-75
2023/03/10 02:28:48;;;;;;;15.77;8.30;;;;;;;10.31;100.00;99604.56;5031764;28;20091;-75
2023/03/10 02:31:15;;;;;;;13.23;7.88;;;;;;;9.83;100.00;99582.41;5030613;28;20029;-74
2023/03/10 02:33:43;;;;;;;15.65;8.88;;;;;;;9.94;100.00;99570.22;5030298;28;20037;-74
2023/03/10 02:36:19;;;;;;;12.88;7.63;;;;;;;10.16;100.00;99610.13;5030693;28;20070;-74
2023/03/10 02:38:45;;;;;;;16.02;8.40;;;;;;;9.88;100.00;99583.97;5031934;28;20104;-76
2023/03/10 02:41:19;;;;;;;13.50;7.63;;;;;;;10.15;100.00;99616.13;5031589;28;20038;-75
2023/03/10 02:43:46;;;;;;;10.80;7.90;;;;;;;10.02;100.00;99571.63;5031752;28;20033;-77
2023/03/10 02:46:13;;;;;;;10.52;7.50;;;;;;;9.95;100.00;99605.72;5031462;28;20033;-75
2023/03/10 02:48:39;;;;;;;12.75;8.10;;;;;;;10.06;100.00;99590.97;5030055;28;20050;-74
2023/03/10 02:51:15;;;;;;;9.88;7.20;;;;;;;10.10;100.00;99563.81;5031037;28;20030;-75
2023/03/10 02:53:40;;;;;;;15.75;7.82;;;;;;;9.90;100.00;99597.44;5030568;28;20065;-76
2023/03/10 02:56:06;;;;;;;12.48;8.25;;;;;;;10.07;100.00;99633.28;5031650;28;20534;-75
2023/03/10 02:58:32;;;;;;;13.73;8.15;;;;;;;10.02;100.00;99636.84;5031496;28;20032;-75
2023/03/10 03:00:58;;;;;;;14.55;9.25;;;;;;;9.81;100.00;99618.00;5029920;28;20064;-75
2023/03/10 03:03:23;;;;;;;32.78;26.02;;;;;;;9.53;100.00;99574.03;5029789;28;20099;-76
2023/03/10 03:05:50;;;;;;;20.63;13.10;;;;;;;9.28;100.00;99594.25;5029998;28;20468;-75
2023/03/10 03:08:17;;;;;;;16.65;11.32;;;;;;;9.51;100.00;99635.00;5030394;28;20109;-75
2023/03/10 03:10:42;;;;;;;21.20;9.45;;;;;;;9.14;100.00;99578.59;5041568;28;20091;-75
2023/03/10 03:13:08;;;;;;;17.30;8.85;;;;;;;9.22;100.00;99601.19;5054971;28;20029;-75
2023/03/10 03:15:34;;;;;;;18.02;9.63;;;;;;;9.11;100.00;99571.06;5053383;28;20128;-75
2023/03/10 03:18:00;;;;;;;14.57;8.25;;;;;;;9.14;100.00;99583.66;5053863;28;20035;-74
2023/03/10 03:20:27;;;;;;;16.77;9.48;;;;;;;9.08;100.00;99576.22;5054529;28;20021;-74
2023/03/10 03:22:52;;;;;;;20.67;13.80;;;;;;;9.46;100.00;99623.31;5054851;28;20037;-75
2023/03/10 03:25:20;;;;;;;15.57;10.57;;;;;;;9.02;100.00;99588.25;5055457;28;20045;-74
2023/03/10 03:27:46;;;;;;;12.77;8.70;;;;;;;8.99;100.00;99551.16;5054302;28;20561;-74
2023/03/10 03:30:24;;;;;;;12.30;8.98;;;;;;;9.04;100.00;99581.44;5052243;28;20091;-74
2023/03/10 03:32:50;;;;;;;15.63;8.63;;;;;;;9.27;100.00;99628.06;5053806;28;20609;-75
2023/03/10 03:35:18;;;;;;;13.38;8.65;;;;;;;8.74;100.00;99639.69;5053984;28;20118;-75
2023/03/10 03:37:44;;;;;;;14.80;8.20;;;;;;;8.78;100.00;99579.63;5054614;28;20029;-75
2023/03/10 03:40:12;;;;;;;14.27;9.25;;;;;;;9.25;100.00;99589.25;5041285;28;20030;-74
2023/03/10 03:42:39;;;;;;;12.40;8.95;;;;;;;8.83;100.00;99555.00;5034805;28;20487;-76
2023/03/10 03:45:06;;;;;;;14.85;8.57;;;;;;;9.03;100.00;99600.88;5034041;28;20033;-75
2023/03/10 03:47:32;;;;;;;12.32;8.43;;;;;;;8.86;100.00;99547.28;5033585;28;20028;-75
2023/03/10 03:49:57;;;;;;;12.05;8.27;;;;;;;8.99;100.00;99608.63;5033466;28;20472;-75
2023/03/10 03:52:23;;;;;;;16.73;9.30;;;;;;;8.66;100.00;99574.88;5034195;28;20045;-75
2023/03/10 03:54:48;;;;;;;14.25;9.45;;;;;;;8.68;100.00;99555.41;5034589;28;20565;-76
2023/03/10 03:57:14;;;;;;;11.68;8.65;;;;;;;8.99;100.00;99598.47;5034405;28;20029;-75
2023/03/10 03:59:39;;;;;;;12.75;8.43;;;;;;;9.12;100.00;99592.19;5033901;28;20030;-75
2023/03/10 04:02:04;;;;;;;14.25;9.35;;;;;;;8.75;100.00;99537.44;5033543;28;20036;-76
2023/03/10 04:04:30;;;;;;;14.70;10.07;;;;;;;8.77;100.00;99496.03;5034468;28;20029;-77
2023/03/10 04:06:55;;;;;;;23.55;13.80;;;;;;;8.62;100.00;99542.88;5034168;28;20036;-75
2023/03/10 04:09:21;;;;;;;17.17;11.93;;;;;;;8.95;100.00;99600.28;5034089;28;20040;-76
2023/03/10 04:11:46;;;;;;;13.82;10.10;;;;;;;9.08;100.00;99605.81;5033107;28;20416;-75
2023/03/10 04:14:12;;;;;;;15.93;11.05;;;;;;;8.85;100.00;99543.09;5032702;28;20084;-77
2023/03/10 04:16:37;;;;;;;18.20;11.63;;;;;;;8.82;100.00;99588.78;5033175;28;20478;-76
2023/03/10 04:19:06;;;;;;;16.08;11.60;;;;;;;8.72;100.00;99544.31;5034348;28;20420;-75
2023/03/10 04:21:32;;;;;;;20.83;12.20;;;;;;;8.52;100.00;99537.25;5032945;28;20033;-75
2023/03/10 04:23:57;;;;;;;17.05;12.20;;;;;;;8.70;100.00;99538.44;5033281;28;20049;-75
2023/03/10 04:26:23;;;;;;;15.73;11.45;;;;;;;9.00;100.00;99600.13;5033546;28;20037;-75
2023/03/10 04:28:49;;;;;;;17.15;11.25;;;;;;;9.01;100.00;99599.28;5033291;28;20029;-75
2023/03/10 04:31:17;;;;;;;18.83;13.05;;;;;;;8.58;100.00;99553.97;5033975;28;20029;-75
2023/03/10 04:33:42;;;;;;;19.48;10.82;;;;;;;8.99;100.00;99598.47;5033650;28;20029;-75
2023/03/10 04:36:09;;;;;;;17.70;9.98;;;;;;;9.94;100.00;99593.91;5037659;28;20033;-77
2023/03/10 04:38:35;;;;;;;18.58;11.02;;;;;;;8.84;100.00;99596.34;5053897;28;20031;-75
2023/03/10 04:41:01;;;;;;;13.75;10.60;;;;;;;8.93;100.00;99591.88;5053966;28;20028;-78
2023/03/10 04:43:27;;;;;;;16.95;10.57;;;;;;;8.86;100.00;99608.13;5053435;28;20083;-75
2023/03/10 04:45:53;;;;;;;19.52;12.13;;;;;;;8.71;100.00;99593.34;5052729;28;20029;-78
2023/03/10 04:48:18;;;;;;;17.17;10.95;;;;;;;8.67;100.00;99541.09;5052414;28;20111;-75
2023/03/10 04:50:43;;;;;;;18.33;10.50;;;;;;;9.19;100.00;99581.81;5053119;28;20040;-76
2023/03/10 04:53:09;;;;;;;13.93;9.68;;;;;;;9.18;100.00;99543.81;5051836;28;20383;-72
2023/03/10 04:55:34;;;;;;;23.98;15.98;;;;;;;9.18;100.00;99595.38;5053691;28;20032;-76
2023/03/10 04:58:00;;;;;;;28.17;18.23;;;;;;;9.65;100.00;99604.13;5052842;28;20421;-75
2023/03/10 05:00:25;;;;;;;27.63;17.63;;;;;;;9.48;100.00;99613.97;5053323;28;20097;-78
2023/03/10 05:02:51;;;;;;;28.92;17.10;;;;;;;8.99;100.00;99578.22;5050961;28;20056;-77
2023/03/10 05:05:16;;;;;;;19.67;13.68;;;;;;;9.22;100.00;99561.47;5050981;28;20179;-76
2023/03/10 05:07:42;;;;;;;23.52;15.43;;;;;;;9.11;100.00;99562.66;5053404;28;20049;-75
2023/03/10 05:10:09;;;;;;;33.63;20.55;;;;;;;9.16;100.00;99550.66;5053000;28;20085;-75
2023/03/10 05:12:37;;;;;;;27.35;16.05;;;;;;;8.62;100.00;99564.00;5051752;28;20044;-75
2023/03/10 05:15:03;;;;;;;30.50;17.88;;;;;;;8.47;100.00;99620.13;5052853;28;20037;-77
2023/03/10 05:17:29;;;;;;;38.30;22.80;;;;;;;8.85;100.00;99618.31;5052485;28;20090;-74
2023/03/10 05:19:56;;;;;;;22.08;13.55;;;;;;;9.19;100.00;99611.44;5050855;28;20111;-75
2023/03/10 05:22:21;;;;;;;16.17;11.20;;;;;;;9.01;100.00;99614.47;5052371;28;20061;-73
2023/03/10 05:24:47;;;;;;;16.75;11.30;;;;;;;9.29;100.00;99612.84;5049168;28;20092;-74
2023/03/10 05:27:13;;;;;;;17.58;12.48;;;;;;;9.28;100.00;99611.16;5039805;28;20505;-73
2023/03/10 05:29:39;;;;;;;20.10;12.27;;;;;;;10.20;100.00;99605.81;5046011;28;20037;-73
2023/03/10 05:32:05;;;;;;;16.63;12.82;;;;;;;10.79;100.00;99596.16;5035921;28;20443;-73
2023/03/10 05:34:31;;;;;;;20.65;12.95;;;;;;;10.87;100.00;99605.19;5051733;28;20163;-74
2023/03/10 05:36:56;;;;;;;19.30;14.45;;;;;;;10.89;100.00;99607.69;5051739;28;20235;-72
2023/03/10 05:39:22;;;;;;;21.02;14.15;;;;;;;10.74;100.00;99615.81;5051856;28;20122;-73
2023/03/10 05:41:48;;;;;;;20.92;12.80;;;;;;;11.06;100.00;99625.69;5050070;28;20025;-72
2023/03/10 05:44:13;;;;;;;17.58;12.25;;;;;;;10.95;100.00;99638.78;5039382;28;20134;-73
2023/03/10 05:46:38;;;;;;;20.20;13.07;;;;;;;11.40;100.00;99575.25;5029800;28;20037;-73
2023/03/10 05:49:04;;;;;;;29.17;16.15;;;;;;;11.21;100.00;99622.63;5031665;28;20075;-73
2023/03/10 05:51:29;;;;;;;28.00;14.93;;;;;;;11.05;100.00;99629.94;5030376;28;20040;-73
2023/03/10 05:53:55;;;;;;;26.33;13.13;;;;;;;11.04;100.00;99632.56;5030566;28;20026;-73
2023/03/10 05:56:21;;;;;;;31.73;13.52;;;;;;;11.11;100.00;99586.50;5030164;28;20052;-73
2023/03/10 05:58:46;;;;;;;24.20;11.48;;;;;;;11.05;100.00;99647.75;5031837;28;20072;-72
2023/03/10 06:01:13;;;;;;;17.80;10.15;;;;;;;11.13;100.00;99660.22;5031086;28;20484;-72
2023/03/10 06:03:38;;;;;;;16.30;10.70;;;;;;;11.26;100.00;99649.56;5031426;28;20574;-73
2023/03/10 06:06:05;;;;;;;19.77;11.50;;;;;;;10.88;100.00;99619.56;5037984;28;20052;-73
2023/03/10 06:08:31;;;;;;;18.67;13.18;;;;;;;10.52;100.00;99614.91;5051151;28;20518;-72
2023/03/10 06:10:57;;;;;;;16.13;12.88;;;;;;;11.03;100.00;99669.06;5051200;28;20051;-72
2023/03/10 06:13:24;;;;;;;18.50;12.85;;;;;;;11.33;100.00;99685.78;5051440;28;20025;-72
2023/03/10 06:15:54;;;;;;;18.30;12.38;;;;;;;11.01;100.00;99642.84;5050152;28;20037;-73
2023/03/10 06:18:20;;;;;;;18.55;11.23;;;;;;;11.33;100.00;99675.59;5050397;28;20456;-73
2023/03/10 06:20:47;;;;;;;13.98;10.40;;;;;;;11.72;100.00;99681.81;5051263;28;20056;-74
2023/03/10 06:23:16;;;;;;;16.40;10.63;;;;;;;11.28;100.00;99641.88;5050125;28;20036;-72
2023/03/10 06:25:42;;;;;;;18.58;11.68;;;;;;;11.83;100.00;99692.44;5049465;28;20059;-72
2023/03/10 06:28:08;;;;;;;20.02;12.13;;;;;;;11.74;100.00;99702.13;5051343;28;20484;-73
2023/03/10 06:30:34;;;;;;;18.00;12.25;;;;;;;12.10;100.00;99703.28;5051554;28;20496;-73
2023/03/10 06:33:00;;;;;;;13.27;9.73;;;;;;;11.34;100.00;99662.00;5049941;28;20033;-72
2023/03/10 06:35:27;;;;;;;18.23;12.52;;;;;;;12.09;100.00;99651.50;5050902;28;20037;-72
2023/03/10 06:37:52;;;;;;;24.73;16.15;;;;;;;12.43;100.00;99703.69;5050216;28;20033;-73
2023/03/10 06:40:18;;;;;;;24.00;17.40;;;;;;;12.14;100.00;99615.66;5051360;28;20882;-73
2023/03/10 06:42:43;;;;;;;20.30;14.75;;;;;;;12.54;100.00;99660.75;5050935;28;20078;-72
2023/03/10 06:45:13;;;;;;;14.75;9.95;;;;;;;12.85;100.00;99667.06;5052913;28;20032;-73
2023/03/10 06:47:39;;;;;;;16.17;9.75;;;;;;;13.37;100.00;99708.25;5055580;28;20040;-73
2023/03/10 06:50:05;;;;;;;17.92;8.60;;;;;;;12.33;100.00;99636.94;5053839;28;20025;-73
2023/03/10 06:52:34;;;;;;;14.43;8.68;;;;;;;13.52;100.00;99731.38;5054720;28;20044;-72
2023/03/10 06:55:03;;;;;;;17.13;10.23;;;;;;;13.23;100.00;99724.13;5055306;28;20029;-73
2023/03/10 06:57:28;;;;;;;18.10;13.60;;;;;;;13.62;100.00;99727.53;5054783;28;20105;-72
2023/03/10 06:59:59;;;;;;;31.10;21.88;;;;;;;14.07;100.00;99705.88;5054710;28;20495;-72
2023/03/10 07:02:25;;;;;;;23.48;15.55;;;;;;;13.56;100.00;99674.16;5054298;28;20509;-73
2023/03/10 07:04:50;;;;;;;27.35;18.15;;;;;;;13.74;100.00;99721.88;5053364;28;20040;-73
2023/03/10 07:07:16;;;;;;;25.33;19.30;;;;;;;14.02;100.00;99724.00;5053300;28;20029;-73
2023/03/10 07:09:41;;;;;;;27.05;19.52;;;;;;;14.51;100.00;99685.00;5054845;28;20025;-72
2023/03/10 07:12:07;;;;;;;25.15;17.98;;;;;;;14.60;100.00;99683.72;5054773;28;20182;-73
2023/03/10 07:14:32;;;;;;;26.15;17.45;;;;;;;14.75;100.00;99732.44;5054776;28;20029;-72
2023/03/10 07:16:57;;;;;;;28.40;18.17;;;;;;;14.94;100.00;99744.28;5054628;28;20029;-73
2023/03/10 07:19:23;;;;;;;25.30;15.65;;;;;;;14.91;100.00;99739.34;5054377;28;20471;-73
2023/03/10 07:21:49;;;;;;;20.23;15.30;;;;;;;14.37;100.00;99753.06;5054130;28;20017;-72
2023/03/10 07:24:15;;;;;;;18.80;14.00;;;;;;;14.17;100.00;99745.44;5053753;28;20119;-72
2023/03/10 07:26:41;;;;;;;19.70;13.45;;;;;;;14.88;100.00;99681.44;5052476;28;20418;-72
2023/03/10 07:29:06;;;;;;;23.13;14.32;;;;;;;15.56;100.00;99741.97;5053585;28;20035;-72
2023/03/10 07:31:33;;;;;;;17.23;13.38;;;;;;;15.49;100.00;99695.34;5053988;28;20035;-72
2023/03/10 07:34:00;;;;;;;15.95;9.95;;;;;;;15.42;100.00;99691.47;5052917;28;20025;-72
2023/03/10 07:36:26;;;;;;;15.13;11.48;;;;;;;16.44;100.00;99720.03;5053822;28;20032;-72
2023/03/10 07:38:51;;;;;;;13.60;8.90;;;;;;;15.53;100.00;99685.75;5053016;28;20036;-73
2023/03/10 07:41:19;;;;;;;11.50;8.15;;;;;;;16.72;100.00;99699.63;5052337;28;20037;-73
2023/03/10 07:43:45;;;;;;;10.13;5.57;;;;;;;15.94;100.00;99719.44;5053610;28;20033;-74
2023/03/10 07:46:13;;;;;;;7.50;4.78;;;;;;;15.14;100.00;99742.41;5052823;28;20023;-73
2023/03/10 07:48:39;;;;;;;11.93;5.90;;;;;;;15.99;100.00;99735.41;5053151;28;20571;-73
2023/03/10 07:51:06;;;;;;;8.70;5.45;;;;;;;16.05;100.00;99742.75;5052288;28;20028;-71
2023/03/10 07:53:32;;;;;;;12.15;5.93;;;;;;;16.00;100.00;99724.25;5052707;28;20029;-72
2023/03/10 07:55:57;;;;;;;13.55;5.43;;;;;;;15.94;100.00;99681.81;5053306;28;20029;-72
2023/03/10 07:58:23;;;;;;;12.13;5.68;;;;;;;15.12;100.00;99730.56;5052087;28;20048;-73
2023/03/10 08:00:56;;;;;;;13.82;5.63;;;;;;;16.60;100.00;99709.78;5053806;28;20430;-73
2023/03/10 08:03:23;;;;;;;13.50;4.97;;;;;;;16.33;100.00;99724.94;5053351;28;20017;-72
2023/03/10 08:05:48;;;;;;;12.25;5.00;;;;;;;17.06;100.00;99712.16;5053403;28;20025;-72
2023/03/10 08:08:14;;;;;;;11.88;4.78;;;;;;;15.68;100.00;99702.06;5053469;28;20029;-73
2023/03/10 08:10:40;;;;;;;13.68;6.03;;;;;;;15.99;100.00;99737.97;5051985;28;20060;-73
2023/03/10 08:13:05;;;;;;;14.02;6.45;;;;;;;16.42;100.00;99717.56;5051524;28;20021;-73
2023/03/10 08:15:31;;;;;;;14.55;5.40;;;;;;;16.85;100.00;99728.00;5052973;28;20036;-73
2023/03/10 08:17:57;;;;;;;15.05;5.40;;;;;;;16.52;100.00;99679.41;5052134;28;20043;-73
2023/03/10 08:20:22;;;;;;;17.48;6.40;;;;;;;16.70;100.00;99722.00;5051866;28;20115;-72
2023/03/10 08:22:48;;;;;;;13.60;4.93;;;;;;;16.18;100.00;99641.16;5052192;28;20029;-73
2023/03/10 08:25:13;;;;;;;14.85;5.00;;;;;;;16.80;100.00;99730.81;5051395;28;20053;-73
2023/03/10 08:27:40;;;;;;;9.88;4.50;;;;;;;16.16;100.00;99689.16;5051989;28;20036;-72
2023/03/10 08:30:06;;;;;;;14.50;5.40;;;;;;;16.24;100.00;99658.78;5053206;28;20120;-73
2023/03/10 08:32:31;;;;;;;11.10;4.75;;;;;;;16.36;100.00;99676.06;5051779;28;20064;-74
2023/03/10 08:34:57;;;;;;;7.18;4.55;;;;;;;16.43;100.00;99713.28;5052957;28;20066;-73
2023/03/10 08:37:22;;;;;;;10.43;4.68;;;;;;;16.14;100.00;99661.00;5052076;28;20040;-73
2023/03/10 08:39:50;;;;;;;15.45;4.47;;;;;;;16.43;100.00;99708.13;5052589;28;20460;-73
2023/03/10 08:42:16;;;;;;;13.60;5.03;;;;;;;16.42;100.00;99671.38;5051499;28;20025;-73
2023/03/10 08:44:41;;;;;;;15.48;10.80;;;;;;;16.25;100.00;99688.63;5052930;28;20033;-73
2023/03/10 08:47:07;;;;;;;9.75;4.55;;;;;;;15.93;100.00;99723.75;5052715;28;20028;-73
2023/03/10 08:49:32;;;;;;;9.43;4.47;;;;;;;15.03;100.00;99693.47;5051805;28;20059;-72
2023/03/10 08:51:59;;;;;;;11.35;4.30;;;;;;;15.52;100.00;99661.88;5052650;28;20110;-73
2023/03/10 08:54:25;;;;;;;9.30;3.83;;;;;;;16.21;100.00;99721.34;5051494;28;20029;-72
2023/03/10 08:56:51;;;;;;;9.18;4.10;;;;;;;16.44;100.00;99712.34;5052643;28;20131;-72
2023/03/10 08:59:18;;;;;;;10.57;4.22;;;;;;;16.11;100.00;99650.94;5051219;28;20506;-73
2023/03/10 09:01:43;;;;;;;10.35;4.22;;;;;;;16.24;100.00;99666.47;5052638;28;20067;-74
2023/03/10 09:04:09;;;;;;;10.15;4.47;;;;;;;16.14;100.00;99670.47;5052075;28;20036;-72
2023/03/10 09:06:36;;;;;;;9.60;4.43;;;;;;;16.51;100.00;99715.44;5051820;28;20056;-73
2023/03/10 09:09:02;;;;;;;9.38;4.00;;;;;;;16.03;100.00;99712.06;5050747;28;20037;-73
2023/03/10 09:11:31;;;;;;;10.35;4.50;;;;;;;16.28;100.00;99707.25;5052323;28;20044;-73
2023/03/10 09:13:58;;;;;;;11.30;4.53;;;;;;;15.97;100.00;99660.28;5052421;28;20068;-73
2023/03/10 09:16:24;;;;;;;10.68;4.63;;;;;;;16.18;100.00;99707.84;5051408;28;20037;-72
2023/03/10 09:18:49;;;;;;;10.20;4.45;;;;;;;16.17;100.00;99709.59;5052018;28;20784;-72
2023/03/10 09:21:18;;;;;;;9.27;4.43;;;;;;;15.75;100.00;99706.78;5051967;28;20031;-72
2023/03/10 09:23:46;;;;;;;8.65;4.60;;;;;;;16.23;100.00;99686.16;5050804;28;20037;-72
2023/03/10 09:26:11;;;;;;;10.30;5.00;;;;;;;16.04;100.00;99635.97;5051856;28;20032;-73
2023/03/10 09:28:37;;;;;;;11.07;4.70;;;;;;;16.58;100.00;99686.75;5052083;28;20032;-73
2023/03/10 09:31:04;;;;;;;12.77;5.00;;;;;;;16.22;100.00;99629.81;5051160;28;20033;-72
2023/03/10 09:33:31;;;;;;;9.05;4.40;;;;;;;16.02;100.00;99624.97;5050330;28;20029;-72
2023/03/10 09:35:57;;;;;;;7.55;4.10;;;;;;;16.59;100.00;99670.47;5050768;28;20522;-72
2023/03/10 09:38:23;;;;;;;9.27;4.82;;;;;;;15.91;100.00;99635.81;5050761;28;20021;-72
2023/03/10 09:41:12;;;;;;;9.13;4.25;;;;;;;16.73;100.00;99682.50;5051844;28;20039;-72
2023/03/10 09:43:40;;;;;;;9.23;4.63;;;;;;;16.23;100.00;99634.03;5040219;28;20079;-72
2023/03/10 09:46:24;;;;;;;11.60;4.40;;;;;;;15.72;100.00;99626.66;5051377;28;20025;-73
2023/03/10 09:48:56;;;;;;;8.40;5.85;;;;;;;16.61;100.00;99673.75;5051779;28;20029;-73
2023/03/10 09:51:24;;;;;;;9.15;4.60;;;;;;;16.10;100.00;99608.22;5051262;28;20036;-73
2023/03/10 09:54:00;;;;;;;12.05;4.72;;;;;;;17.09;100.00;99676.00;5051344;28;20086;-73
2023/03/10 09:56:30;;;;;;;7.53;4.88;;;;;;;16.83;100.00;99622.00;5051776;28;20029;-73
2023/03/10 09:59:15;;;;;;;8.48;4.78;;;;;;;17.32;100.00;99667.78;5050384;28;20039;-72
2023/03/10 10:01:45;;;;;;;10.60;5.20;;;;;;;16.88;100.00;99607.13;5049986;28;20037;-73
2023/03/10 10:04:17;;;;;;;11.73;5.82;;;;;;;17.01;100.00;99613.19;5049798;28;20121;-72
2023/03/10 10:06:45;;;;;;;12.52;4.90;;;;;;;17.02;100.00;99617.41;5050180;28;20055;-73
2023/03/10 10:09:41;;;;;;;16.55;5.68;;;;;;;17.08;100.00;99664.09;5050317;28;20024;-72
2023/03/10 10:12:12;;;;;;;7.68;4.90;;;;;;;17.76;100.00;99628.25;5051602;28;20052;-72
2023/03/10 10:14:38;;;;;;;11.05;4.32;;;;;;;18.01;100.00;99625.75;5049430;28;20053;-73
2023/03/10 10:17:16;;;;;;;9.75;4.80;;;;;;;17.52;100.00;99612.59;5049213;28;20051;-73
2023/03/10 10:19:44;;;;;;;9.48;4.13;;;;;;;17.65;100.00;99600.63;5049692;28;20400;-71
2023/03/10 10:22:30;;;;;;;8.27;4.85;;;;;;;18.37;100.00;99651.69;5051152;28;20040;-73
2023/03/10 10:25:01;;;;;;;11.32;4.03;;;;;;;18.17;100.00;99649.59;5051403;28;20057;-75
2023/03/10 10:27:30;;;;;;;10.00;4.38;;;;;;;18.37;100.00;99641.41;5051477;28;20029;-74
2023/03/10 10:29:55;;;;;;;8.27;4.78;;;;;;;17.24;100.00;99628.88;5051106;28;20036;-75
2023/03/10 10:32:21;;;;;;;11.15;5.18;;;;;;;17.75;100.00;99624.84;5051428;28;20442;-75
2023/03/10 10:34:48;;;;;;;9.68;4.85;;;;;;;18.06;100.00;99623.72;5051293;28;20071;-75
2023/03/10 10:37:25;;;;;;;13.07;5.65;;;;;;;17.66;100.00;99628.00;5050192;28;20025;-75
2023/03/10 10:39:53;;;;;;;9.70;5.43;;;;;;;17.96;100.00;99620.09;5050597;28;20064;-74
2023/03/10 10:42:24;;;;;;;8.70;5.28;;;;;;;18.78;100.00;99629.22;5051239;28;20080;-76
2023/03/10 10:44:53;;;;;;;11.10;5.25;;;;;;;18.35;100.00;99614.09;5050501;28;20101;-73
2023/03/10 10:47:55;;;;;;;9.18;5.03;;;;;;;18.92;100.00;99571.59;5049508;28;20036;-76
2023/03/10 10:50:25;;;;;;;11.85;5.28;;;;;;;18.49;100.00;99614.88;5050595;28;20099;-77
2023/03/10 10:53:21;;;;;;;8.07;4.80;;;;;;;18.85;100.00;99594.41;5051784;28;20048;-77
2023/03/10 10:56:12;;;;;;;8.40;4.63;;;;;;;18.57;100.00;99543.09;5050667;28;20033;-78
2023/03/10 10:58:39;;;;;;;9.40;4.20;;;;;;;18.91;100.00;99596.56;5049164;28;20037;-76
2023/03/10 11:01:07;;;;;;;10.05;4.80;;;;;;;19.36;100.00;99581.44;5051593;28;20032;-76
2023/03/10 11:03:37;;;;;;;8.45;4.25;;;;;;;18.97;100.00;99578.09;5051386;28;20053;-76
2023/03/10 11:06:26;;;;;;;4.38;3.72;;;;;;;19.29;100.00;99565.56;5051303;28;20090;-77
2023/03/10 11:09:03;;;;;;;5.80;3.90;;;;;;;19.09;100.00;99554.97;5049853;28;20029;-76
2023/03/10 11:11:37;;;;;;;7.70;5.05;;;;;;;19.43;100.00;99470.00;5051167;28;20446;-77
2023/03/10 11:14:17;;;;;;;8.60;4.38;;;;;;;19.70;100.00;99552.31;5051173;28;20029;-77
2023/03/10 11:17:11;;;;;;;8.23;4.53;;;;;;;19.79;100.00;99554.22;5051378;28;20017;-77
2023/03/10 11:19:54;;;;;;;12.55;4.90;;;;;;;19.91;100.00;99496.56;5049664;28;20060;-78